sensor_id;sensor_type;location;lat;lon;timestamp;P1;durP1;ratioP1;P2;durP2;ratioP2
28653;SDS011;24320;56.980;24.336;2024-02-26T00:02:17;13.45;;;6.13;;
28653;SDS011;24320;56.980;24.336;2024-02-26T00:04:44;15.13;;;6.82;;
28653;SDS011;24320;56.980;24.336;2024-02-26T00:07:13;14.55;;;7.35;;
28653;SDS011;24320;56.980;24.336;2024-02-26T00:09:40;16.33;;;7.05;;
28653;SDS011;24320;56.980;24.336;2024-02-26T00:12:07;15.10;;;6.65;;
28653;SDS011;24320;56.980;24.336;2024-02-26T00:14:34;15.88;;;7.18;;
28653;SDS011;24320;56.980;24.336;2024-02-26T00:17:02;17.50;;;6.47;;
28653;SDS011;24320;56.980;24.336;2024-02-26T00:19:29;16.48;;;7.30;;
28653;SDS011;24320;56.980;24.336;2024-02-26T00:21:56;16.58;;;6.75;;
28653;SDS011;24320;56.980;24.336;2024-02-26T00:24:23;18.48;;;8.25;;
28653;SDS011;24320;56.980;24.336;2024-02-26T00:26:50;20.25;;;8.57;;
28653;SDS011;24320;56.980;24.336;2024-02-26T00:29:20;13.10;;;6.65;;
28653;SDS011;24320;56.980;24.336;2024-02-26T00:31:48;20.55;;;9.75;;
28653;SDS011;24320;56.980;24.336;2024-02-26T00:34:15;27.80;;;14.45;;
28653;SDS011;24320;56.980;24.336;2024-02-26T00:36:42;18.55;;;7.80;;
28653;SDS011;24320;56.980;24.336;2024-02-26T00:39:10;15.75;;;6.82;;
28653;SDS011;24320;56.980;24.336;2024-02-26T00:41:40;18.73;;;6.70;;
28653;SDS011;24320;56.980;24.336;2024-02-26T00:44:07;16.23;;;7.25;;
28653;SDS011;24320;56.980;24.336;2024-02-26T00:46:34;22.75;;;9.35;;
28653;SDS011;24320;56.980;24.336;2024-02-26T00:49:01;15.52;;;7.55;;
28653;SDS011;24320;56.980;24.336;2024-02-26T00:51:29;16.77;;;7.30;;
28653;SDS011;24320;56.980;24.336;2024-02-26T00:53:56;12.80;;;6.22;;
28653;SDS011;24320;56.980;24.336;2024-02-26T00:56:23;13.77;;;6.22;;
28653;SDS011;24320;56.980;24.336;2024-02-26T00:58:50;13.70;;;5.75;;
28653;SDS011;24320;56.980;24.336;2024-02-26T01:01:17;15.18;;;7.40;;
28653;SDS011;24320;56.980;24.336;2024-02-26T01:03:44;13.98;;;7.43;;
28653;SDS011;24320;56.980;24.336;2024-02-26T01:06:11;17.00;;;7.20;;
28653;SDS011;24320;56.980;24.336;2024-02-26T01:08:39;14.82;;;6.05;;
28653;SDS011;24320;56.980;24.336;2024-02-26T01:11:06;14.35;;;6.40;;
28653;SDS011;24320;56.980;24.336;2024-02-26T01:13:34;15.52;;;7.00;;
28653;SDS011;24320;56.980;24.336;2024-02-26T01:16:01;14.80;;;6.05;;
28653;SDS011;24320;56.980;24.336;2024-02-26T01:18:28;11.95;;;6.25;;
28653;SDS011;24320;56.980;24.336;2024-02-26T01:20:55;17.80;;;7.65;;
28653;SDS011;24320;56.980;24.336;2024-02-26T01:23:24;18.80;;;8.50;;
28653;SDS011;24320;56.980;24.336;2024-02-26T01:25:51;16.95;;;8.32;;
28653;SDS011;24320;56.980;24.336;2024-02-26T01:28:17;15.73;;;8.95;;
28653;SDS011;24320;56.980;24.336;2024-02-26T01:30:44;24.38;;;10.13;;
28653;SDS011;24320;56.980;24.336;2024-02-26T01:33:11;18.42;;;10.73;;
28653;SDS011;24320;56.980;24.336;2024-02-26T01:35:39;11.50;;;6.32;;
28653;SDS011;24320;56.980;24.336;2024-02-26T01:38:06;11.90;;;6.13;;
28653;SDS011;24320;56.980;24.336;2024-02-26T01:40:33;12.55;;;6.53;;
28653;SDS011;24320;56.980;24.336;2024-02-26T01:43:00;12.00;;;6.63;;
28653;SDS011;24320;56.980;24.336;2024-02-26T01:45:28;13.27;;;6.38;;
28653;SDS011;24320;56.980;24.336;2024-02-26T01:47:55;19.48;;;7.30;;
28653;SDS011;24320;56.980;24.336;2024-02-26T01:50:24;14.48;;;6.22;;
28653;SDS011;24320;56.980;24.336;2024-02-26T01:52:51;13.52;;;5.53;;
28653;SDS011;24320;56.980;24.336;2024-02-26T01:55:20;11.80;;;6.63;;
28653;SDS011;24320;56.980;24.336;2024-02-26T01:57:50;12.18;;;6.47;;
28653;SDS011;24320;56.980;24.336;2024-02-26T02:00:18;12.02;;;6.15;;
28653;SDS011;24320;56.980;24.336;2024-02-26T02:02:47;15.57;;;6.97;;
28653;SDS011;24320;56.980;24.336;2024-02-26T02:05:15;13.20;;;6.15;;
28653;SDS011;24320;56.980;24.336;2024-02-26T02:07:46;14.15;;;6.43;;
28653;SDS011;24320;56.980;24.336;2024-02-26T02:21:29;13.70;;;6.27;;
28653;SDS011;24320;56.980;24.336;2024-02-26T02:23:56;13.90;;;6.40;;
28653;SDS011;24320;56.980;24.336;2024-02-26T02:26:23;12.77;;;6.38;;
28653;SDS011;24320;56.980;24.336;2024-02-26T02:28:50;10.32;;;5.47;;
28653;SDS011;24320;56.980;24.336;2024-02-26T02:31:17;11.55;;;7.30;;
28653;SDS011;24320;56.980;24.336;2024-02-26T02:33:44;13.70;;;6.75;;
28653;SDS011;24320;56.980;24.336;2024-02-26T02:36:11;9.75;;;4.38;;
28653;SDS011;24320;56.980;24.336;2024-02-26T02:38:41;8.80;;;5.22;;
28653;SDS011;24320;56.980;24.336;2024-02-26T02:41:18;11.27;;;5.40;;
28653;SDS011;24320;56.980;24.336;2024-02-26T02:43:45;11.68;;;5.25;;
28653;SDS011;24320;56.980;24.336;2024-02-26T02:46:12;12.55;;;5.07;;
28653;SDS011;24320;56.980;24.336;2024-02-26T02:48:41;6.90;;;3.92;;
28653;SDS011;24320;56.980;24.336;2024-02-26T02:51:09;7.18;;;3.83;;
28653;SDS011;24320;56.980;24.336;2024-02-26T02:53:36;24.38;;;16.48;;
28653;SDS011;24320;56.980;24.336;2024-02-26T02:56:03;16.58;;;8.80;;
28653;SDS011;24320;56.980;24.336;2024-02-26T02:58:30;9.75;;;4.32;;
28653;SDS011;24320;56.980;24.336;2024-02-26T03:00:58;8.32;;;4.18;;
28653;SDS011;24320;56.980;24.336;2024-02-26T03:03:26;7.05;;;3.90;;
28653;SDS011;24320;56.980;24.336;2024-02-26T03:05:55;8.00;;;4.38;;
28653;SDS011;24320;56.980;24.336;2024-02-26T03:08:23;8.05;;;4.57;;
28653;SDS011;24320;56.980;24.336;2024-02-26T03:10:52;7.47;;;4.50;;
28653;SDS011;24320;56.980;24.336;2024-02-26T03:13:19;9.07;;;4.97;;
28653;SDS011;24320;56.980;24.336;2024-02-26T03:15:46;8.68;;;4.35;;
28653;SDS011;24320;56.980;24.336;2024-02-26T03:18:13;10.05;;;4.88;;
28653;SDS011;24320;56.980;24.336;2024-02-26T03:20:40;8.98;;;4.45;;
28653;SDS011;24320;56.980;24.336;2024-02-26T03:23:07;8.15;;;4.65;;
28653;SDS011;24320;56.980;24.336;2024-02-26T03:25:38;5.13;;;3.20;;
28653;SDS011;24320;56.980;24.336;2024-02-26T03:28:05;5.95;;;3.35;;
28653;SDS011;24320;56.980;24.336;2024-02-26T03:30:32;6.88;;;3.50;;
28653;SDS011;24320;56.980;24.336;2024-02-26T03:32:59;5.38;;;3.65;;
28653;SDS011;24320;56.980;24.336;2024-02-26T03:35:26;5.82;;;3.60;;
28653;SDS011;24320;56.980;24.336;2024-02-26T03:37:53;8.82;;;3.85;;
28653;SDS011;24320;56.980;24.336;2024-02-26T03:40:20;4.57;;;3.28;;
28653;SDS011;24320;56.980;24.336;2024-02-26T03:42:47;6.15;;;3.53;;
28653;SDS011;24320;56.980;24.336;2024-02-26T03:45:14;6.38;;;3.78;;
28653;SDS011;24320;56.980;24.336;2024-02-26T03:47:41;11.77;;;4.00;;
28653;SDS011;24320;56.980;24.336;2024-02-26T03:50:08;10.02;;;4.38;;
28653;SDS011;24320;56.980;24.336;2024-02-26T03:52:35;7.03;;;3.72;;
28653;SDS011;24320;56.980;24.336;2024-02-26T03:55:02;8.38;;;4.68;;
28653;SDS011;24320;56.980;24.336;2024-02-26T03:57:29;10.90;;;4.88;;
28653;SDS011;24320;56.980;24.336;2024-02-26T03:59:56;9.25;;;4.32;;
28653;SDS011;24320;56.980;24.336;2024-02-26T04:02:23;7.85;;;4.13;;
28653;SDS011;24320;56.980;24.336;2024-02-26T04:04:51;7.60;;;4.03;;
28653;SDS011;24320;56.980;24.336;2024-02-26T04:07:18;7.40;;;4.53;;
28653;SDS011;24320;56.980;24.336;2024-02-26T04:09:45;7.10;;;3.97;;
28653;SDS011;24320;56.980;24.336;2024-02-26T04:12:12;9.82;;;4.55;;
28653;SDS011;24320;56.980;24.336;2024-02-26T04:14:39;8.98;;;4.65;;
28653;SDS011;24320;56.980;24.336;2024-02-26T04:17:06;17.63;;;5.90;;
28653;SDS011;24320;56.980;24.336;2024-02-26T04:19:33;15.98;;;6.13;;
28653;SDS011;24320;56.980;24.336;2024-02-26T04:22:01;9.73;;;4.95;;
28653;SDS011;24320;56.980;24.336;2024-02-26T04:24:28;9.23;;;4.38;;
28653;SDS011;24320;56.980;24.336;2024-02-26T04:26:55;7.68;;;4.95;;
28653;SDS011;24320;56.980;24.336;2024-02-26T04:29:24;8.82;;;5.80;;
28653;SDS011;24320;56.980;24.336;2024-02-26T04:31:51;9.35;;;4.68;;
28653;SDS011;24320;56.980;24.336;2024-02-26T04:34:17;9.63;;;5.25;;
28653;SDS011;24320;56.980;24.336;2024-02-26T04:36:44;9.55;;;4.53;;
28653;SDS011;24320;56.980;24.336;2024-02-26T04:39:11;12.52;;;5.65;;
28653;SDS011;24320;56.980;24.336;2024-02-26T04:41:40;21.67;;;10.85;;
28653;SDS011;24320;56.980;24.336;2024-02-26T04:44:07;14.82;;;6.47;;
28653;SDS011;24320;56.980;24.336;2024-02-26T04:46:34;7.65;;;4.25;;
28653;SDS011;24320;56.980;24.336;2024-02-26T04:49:01;10.38;;;6.10;;
28653;SDS011;24320;56.980;24.336;2024-02-26T04:51:28;9.70;;;4.72;;
28653;SDS011;24320;56.980;24.336;2024-02-26T04:53:55;9.05;;;4.95;;
28653;SDS011;24320;56.980;24.336;2024-02-26T04:56:22;10.43;;;5.30;;
28653;SDS011;24320;56.980;24.336;2024-02-26T04:58:49;13.35;;;5.07;;
28653;SDS011;24320;56.980;24.336;2024-02-26T05:01:16;10.02;;;4.82;;
28653;SDS011;24320;56.980;24.336;2024-02-26T05:03:43;14.60;;;5.15;;
28653;SDS011;24320;56.980;24.336;2024-02-26T05:06:10;9.30;;;4.78;;
28653;SDS011;24320;56.980;24.336;2024-02-26T05:08:38;12.23;;;5.20;;
28653;SDS011;24320;56.980;24.336;2024-02-26T05:11:05;13.20;;;6.32;;
28653;SDS011;24320;56.980;24.336;2024-02-26T05:13:32;13.50;;;6.18;;
28653;SDS011;24320;56.980;24.336;2024-02-26T05:16:00;11.85;;;5.47;;
28653;SDS011;24320;56.980;24.336;2024-02-26T05:18:27;13.35;;;6.85;;
28653;SDS011;24320;56.980;24.336;2024-02-26T05:20:54;9.38;;;5.20;;
28653;SDS011;24320;56.980;24.336;2024-02-26T05:23:21;11.45;;;5.13;;
28653;SDS011;24320;56.980;24.336;2024-02-26T05:25:49;12.00;;;4.88;;
28653;SDS011;24320;56.980;24.336;2024-02-26T05:28:17;13.65;;;6.05;;
28653;SDS011;24320;56.980;24.336;2024-02-26T05:30:47;15.75;;;5.88;;
28653;SDS011;24320;56.980;24.336;2024-02-26T05:33:14;12.73;;;5.32;;
28653;SDS011;24320;56.980;24.336;2024-02-26T05:35:44;12.48;;;6.57;;
28653;SDS011;24320;56.980;24.336;2024-02-26T05:38:11;15.40;;;7.03;;
28653;SDS011;24320;56.980;24.336;2024-02-26T05:40:38;15.57;;;5.93;;
28653;SDS011;24320;56.980;24.336;2024-02-26T05:43:05;14.80;;;5.97;;
28653;SDS011;24320;56.980;24.336;2024-02-26T05:45:32;13.52;;;6.05;;
28653;SDS011;24320;56.980;24.336;2024-02-26T05:47:59;17.45;;;6.30;;
28653;SDS011;24320;56.980;24.336;2024-02-26T05:50:27;10.57;;;5.18;;
28653;SDS011;24320;56.980;24.336;2024-02-26T05:52:53;14.60;;;6.05;;
28653;SDS011;24320;56.980;24.336;2024-02-26T05:55:20;19.67;;;8.07;;
28653;SDS011;24320;56.980;24.336;2024-02-26T05:57:47;14.13;;;5.75;;
28653;SDS011;24320;56.980;24.336;2024-02-26T06:00:16;10.90;;;4.78;;
28653;SDS011;24320;56.980;24.336;2024-02-26T06:02:43;11.63;;;6.00;;
28653;SDS011;24320;56.980;24.336;2024-02-26T06:05:10;10.88;;;6.50;;
28653;SDS011;24320;56.980;24.336;2024-02-26T06:07:37;10.45;;;5.05;;
28653;SDS011;24320;56.980;24.336;2024-02-26T06:10:04;11.52;;;5.03;;
28653;SDS011;24320;56.980;24.336;2024-02-26T06:12:34;11.63;;;4.80;;
28653;SDS011;24320;56.980;24.336;2024-02-26T06:15:02;16.07;;;6.23;;
28653;SDS011;24320;56.980;24.336;2024-02-26T06:17:30;15.90;;;5.82;;
28653;SDS011;24320;56.980;24.336;2024-02-26T06:19:57;15.00;;;6.03;;
28653;SDS011;24320;56.980;24.336;2024-02-26T06:22:26;17.23;;;6.07;;
28653;SDS011;24320;56.980;24.336;2024-02-26T06:24:53;11.10;;;5.22;;
28653;SDS011;24320;56.980;24.336;2024-02-26T06:27:20;14.38;;;6.30;;
28653;SDS011;24320;56.980;24.336;2024-02-26T06:29:48;17.08;;;9.23;;
28653;SDS011;24320;56.980;24.336;2024-02-26T06:32:15;19.52;;;9.20;;
28653;SDS011;24320;56.980;24.336;2024-02-26T06:34:42;16.15;;;6.25;;
28653;SDS011;24320;56.980;24.336;2024-02-26T06:37:09;14.55;;;6.75;;
28653;SDS011;24320;56.980;24.336;2024-02-26T06:39:36;17.08;;;6.50;;
28653;SDS011;24320;56.980;24.336;2024-02-26T06:42:04;20.13;;;6.82;;
28653;SDS011;24320;56.980;24.336;2024-02-26T06:44:31;15.63;;;5.90;;
28653;SDS011;24320;56.980;24.336;2024-02-26T06:46:59;16.25;;;6.72;;
28653;SDS011;24320;56.980;24.336;2024-02-26T06:49:27;18.55;;;6.68;;
28653;SDS011;24320;56.980;24.336;2024-02-26T06:51:55;15.57;;;6.57;;
28653;SDS011;24320;56.980;24.336;2024-02-26T06:54:24;17.88;;;6.75;;
28653;SDS011;24320;56.980;24.336;2024-02-26T06:56:52;16.05;;;6.47;;
28653;SDS011;24320;56.980;24.336;2024-02-26T06:59:19;24.70;;;8.15;;
28653;SDS011;24320;56.980;24.336;2024-02-26T07:01:46;20.92;;;8.00;;
28653;SDS011;24320;56.980;24.336;2024-02-26T07:04:14;16.88;;;7.50;;
28653;SDS011;24320;56.980;24.336;2024-02-26T07:06:42;18.75;;;7.65;;
28653;SDS011;24320;56.980;24.336;2024-02-26T07:09:10;20.63;;;7.43;;
28653;SDS011;24320;56.980;24.336;2024-02-26T07:11:39;19.27;;;7.70;;
28653;SDS011;24320;56.980;24.336;2024-02-26T07:14:09;23.38;;;8.95;;
28653;SDS011;24320;56.980;24.336;2024-02-26T07:16:38;25.58;;;9.98;;
28653;SDS011;24320;56.980;24.336;2024-02-26T07:19:05;35.10;;;10.50;;
28653;SDS011;24320;56.980;24.336;2024-02-26T07:21:35;20.17;;;9.07;;
28653;SDS011;24320;56.980;24.336;2024-02-26T07:24:03;28.02;;;9.70;;
28653;SDS011;24320;56.980;24.336;2024-02-26T07:26:32;25.02;;;9.75;;
28653;SDS011;24320;56.980;24.336;2024-02-26T07:28:59;26.30;;;10.07;;
28653;SDS011;24320;56.980;24.336;2024-02-26T07:31:29;21.83;;;9.63;;
28653;SDS011;24320;56.980;24.336;2024-02-26T07:33:56;21.40;;;9.27;;
28653;SDS011;24320;56.980;24.336;2024-02-26T07:36:26;19.80;;;8.13;;
28653;SDS011;24320;56.980;24.336;2024-02-26T07:38:53;18.48;;;7.47;;
28653;SDS011;24320;56.980;24.336;2024-02-26T07:41:23;22.02;;;8.00;;
28653;SDS011;24320;56.980;24.336;2024-02-26T07:43:52;17.75;;;7.93;;
28653;SDS011;24320;56.980;24.336;2024-02-26T07:46:19;28.58;;;8.70;;
28653;SDS011;24320;56.980;24.336;2024-02-26T07:48:48;20.55;;;8.98;;
28653;SDS011;24320;56.980;24.336;2024-02-26T07:51:15;21.98;;;7.95;;
28653;SDS011;24320;56.980;24.336;2024-02-26T07:53:43;21.08;;;8.20;;
28653;SDS011;24320;56.980;24.336;2024-02-26T07:56:12;22.70;;;7.55;;
28653;SDS011;24320;56.980;24.336;2024-02-26T07:58:39;30.08;;;12.68;;
28653;SDS011;24320;56.980;24.336;2024-02-26T08:01:06;26.92;;;9.20;;
28653;SDS011;24320;56.980;24.336;2024-02-26T08:03:36;26.05;;;10.88;;
28653;SDS011;24320;56.980;24.336;2024-02-26T08:06:05;23.63;;;10.13;;
28653;SDS011;24320;56.980;24.336;2024-02-26T08:08:32;25.40;;;9.98;;
28653;SDS011;24320;56.980;24.336;2024-02-26T08:11:00;23.92;;;8.70;;
28653;SDS011;24320;56.980;24.336;2024-02-26T08:13:27;21.83;;;8.18;;
28653;SDS011;24320;56.980;24.336;2024-02-26T08:15:54;22.42;;;8.75;;
28653;SDS011;24320;56.980;24.336;2024-02-26T08:18:21;20.58;;;8.45;;
28653;SDS011;24320;56.980;24.336;2024-02-26T08:20:48;18.92;;;8.23;;
28653;SDS011;24320;56.980;24.336;2024-02-26T08:23:15;24.63;;;8.55;;
28653;SDS011;24320;56.980;24.336;2024-02-26T08:25:42;28.13;;;8.93;;
28653;SDS011;24320;56.980;24.336;2024-02-26T08:28:09;29.65;;;9.65;;
28653;SDS011;24320;56.980;24.336;2024-02-26T08:30:39;21.77;;;9.63;;
28653;SDS011;24320;56.980;24.336;2024-02-26T08:33:06;26.92;;;8.55;;
28653;SDS011;24320;56.980;24.336;2024-02-26T08:35:34;17.17;;;8.05;;
28653;SDS011;24320;56.980;24.336;2024-02-26T08:38:01;16.40;;;7.53;;
28653;SDS011;24320;56.980;24.336;2024-02-26T08:40:29;19.27;;;7.80;;
28653;SDS011;24320;56.980;24.336;2024-02-26T08:42:56;20.23;;;7.70;;
28653;SDS011;24320;56.980;24.336;2024-02-26T08:45:23;17.08;;;6.97;;
28653;SDS011;24320;56.980;24.336;2024-02-26T08:47:55;17.23;;;7.00;;
28653;SDS011;24320;56.980;24.336;2024-02-26T08:50:22;19.40;;;8.13;;
28653;SDS011;24320;56.980;24.336;2024-02-26T08:52:49;17.73;;;7.60;;
28653;SDS011;24320;56.980;24.336;2024-02-26T08:55:17;14.70;;;6.82;;
28653;SDS011;24320;56.980;24.336;2024-02-26T08:57:44;15.10;;;7.53;;
28653;SDS011;24320;56.980;24.336;2024-02-26T09:00:11;13.00;;;7.28;;
28653;SDS011;24320;56.980;24.336;2024-02-26T09:02:38;15.82;;;7.22;;
28653;SDS011;24320;56.980;24.336;2024-02-26T09:05:05;18.23;;;7.72;;
28653;SDS011;24320;56.980;24.336;2024-02-26T09:07:33;17.98;;;7.80;;
28653;SDS011;24320;56.980;24.336;2024-02-26T09:10:00;16.10;;;6.95;;
28653;SDS011;24320;56.980;24.336;2024-02-26T09:12:27;17.70;;;6.80;;
28653;SDS011;24320;56.980;24.336;2024-02-26T09:14:54;19.58;;;7.00;;
28653;SDS011;24320;56.980;24.336;2024-02-26T09:17:22;15.38;;;6.43;;
28653;SDS011;24320;56.980;24.336;2024-02-26T09:19:49;17.13;;;7.32;;
28653;SDS011;24320;56.980;24.336;2024-02-26T09:22:16;19.10;;;7.40;;
28653;SDS011;24320;56.980;24.336;2024-02-26T09:24:44;15.02;;;6.78;;
28653;SDS011;24320;56.980;24.336;2024-02-26T09:27:11;12.88;;;6.50;;
28653;SDS011;24320;56.980;24.336;2024-02-26T09:29:38;15.85;;;6.93;;
28653;SDS011;24320;56.980;24.336;2024-02-26T09:32:05;16.58;;;6.47;;
28653;SDS011;24320;56.980;24.336;2024-02-26T09:34:32;14.30;;;6.70;;
28653;SDS011;24320;56.980;24.336;2024-02-26T09:37:00;16.05;;;7.25;;
28653;SDS011;24320;56.980;24.336;2024-02-26T09:39:40;18.00;;;7.63;;
28653;SDS011;24320;56.980;24.336;2024-02-26T09:42:08;14.68;;;6.95;;
28653;SDS011;24320;56.980;24.336;2024-02-26T09:44:39;23.73;;;7.85;;
28653;SDS011;24320;56.980;24.336;2024-02-26T09:47:08;14.30;;;7.05;;
28653;SDS011;24320;56.980;24.336;2024-02-26T09:49:38;15.88;;;7.45;;
28653;SDS011;24320;56.980;24.336;2024-02-26T09:52:05;12.85;;;7.03;;
28653;SDS011;24320;56.980;24.336;2024-02-26T09:54:34;15.52;;;7.18;;
28653;SDS011;24320;56.980;24.336;2024-02-26T09:57:02;18.95;;;6.78;;
28653;SDS011;24320;56.980;24.336;2024-02-26T09:59:39;15.40;;;7.07;;
28653;SDS011;24320;56.980;24.336;2024-02-26T10:02:11;14.30;;;6.97;;
28653;SDS011;24320;56.980;24.336;2024-02-26T10:04:39;16.45;;;8.00;;
28653;SDS011;24320;56.980;24.336;2024-02-26T10:07:12;16.25;;;7.07;;
28653;SDS011;24320;56.980;24.336;2024-02-26T10:09:40;18.10;;;7.47;;
28653;SDS011;24320;56.980;24.336;2024-02-26T10:12:08;15.55;;;6.72;;
28653;SDS011;24320;56.980;24.336;2024-02-26T10:14:42;12.73;;;6.70;;
28653;SDS011;24320;56.980;24.336;2024-02-26T10:17:09;16.50;;;7.30;;
28653;SDS011;24320;56.980;24.336;2024-02-26T10:19:37;15.88;;;7.15;;
28653;SDS011;24320;56.980;24.336;2024-02-26T10:22:05;13.20;;;6.22;;
28653;SDS011;24320;56.980;24.336;2024-02-26T10:24:32;15.50;;;6.68;;
28653;SDS011;24320;56.980;24.336;2024-02-26T10:27:01;17.73;;;7.10;;
28653;SDS011;24320;56.980;24.336;2024-02-26T10:29:30;19.73;;;7.78;;
28653;SDS011;24320;56.980;24.336;2024-02-26T10:31:57;17.40;;;7.18;;
28653;SDS011;24320;56.980;24.336;2024-02-26T10:34:24;18.55;;;7.55;;
28653;SDS011;24320;56.980;24.336;2024-02-26T10:36:53;19.08;;;7.18;;
28653;SDS011;24320;56.980;24.336;2024-02-26T10:39:21;17.33;;;6.90;;
28653;SDS011;24320;56.980;24.336;2024-02-26T10:41:48;15.05;;;6.68;;
28653;SDS011;24320;56.980;24.336;2024-02-26T10:44:16;13.85;;;7.10;;
28653;SDS011;24320;56.980;24.336;2024-02-26T10:46:46;20.55;;;6.53;;
28653;SDS011;24320;56.980;24.336;2024-02-26T10:49:16;16.77;;;6.88;;
28653;SDS011;24320;56.980;24.336;2024-02-26T10:51:54;12.93;;;6.55;;
28653;SDS011;24320;56.980;24.336;2024-02-26T10:54:26;12.85;;;6.07;;
28653;SDS011;24320;56.980;24.336;2024-02-26T10:56:56;13.63;;;6.82;;
28653;SDS011;24320;56.980;24.336;2024-02-26T10:59:26;12.98;;;6.53;;
28653;SDS011;24320;56.980;24.336;2024-02-26T11:01:53;14.93;;;7.15;;
28653;SDS011;24320;56.980;24.336;2024-02-26T11:04:22;15.32;;;7.13;;
28653;SDS011;24320;56.980;24.336;2024-02-26T11:06:51;17.63;;;7.97;;
28653;SDS011;24320;56.980;24.336;2024-02-26T11:09:24;14.63;;;7.20;;
28653;SDS011;24320;56.980;24.336;2024-02-26T11:11:52;17.80;;;7.38;;
28653;SDS011;24320;56.980;24.336;2024-02-26T11:14:22;14.70;;;7.40;;
28653;SDS011;24320;56.980;24.336;2024-02-26T11:16:52;15.50;;;7.75;;
28653;SDS011;24320;56.980;24.336;2024-02-26T11:19:22;15.95;;;7.22;;
28653;SDS011;24320;56.980;24.336;2024-02-26T11:21:54;16.58;;;6.95;;
28653;SDS011;24320;56.980;24.336;2024-02-26T11:24:26;14.40;;;6.45;;
28653;SDS011;24320;56.980;24.336;2024-02-26T11:26:57;11.70;;;6.05;;
28653;SDS011;24320;56.980;24.336;2024-02-26T11:29:39;15.93;;;8.75;;
28653;SDS011;24320;56.980;24.336;2024-02-26T11:32:13;18.30;;;9.35;;
28653;SDS011;24320;56.980;24.336;2024-02-26T11:34:41;15.63;;;7.38;;
28653;SDS011;24320;56.980;24.336;2024-02-26T11:37:14;19.30;;;7.03;;
28653;SDS011;24320;56.980;24.336;2024-02-26T11:39:42;13.43;;;6.18;;
28653;SDS011;24320;56.980;24.336;2024-02-26T11:42:13;14.82;;;7.03;;
28653;SDS011;24320;56.980;24.336;2024-02-26T11:44:42;13.18;;;6.50;;
28653;SDS011;24320;56.980;24.336;2024-02-26T11:47:19;15.55;;;6.03;;
28653;SDS011;24320;56.980;24.336;2024-02-26T11:49:50;12.45;;;6.20;;
28653;SDS011;24320;56.980;24.336;2024-02-26T11:52:19;13.75;;;5.90;;
28653;SDS011;24320;56.980;24.336;2024-02-26T11:57:25;12.20;;;6.17;;
28653;SDS011;24320;56.980;24.336;2024-02-26T12:00:10;10.40;;;5.40;;
28653;SDS011;24320;56.980;24.336;2024-02-26T12:02:45;18.10;;;7.72;;
28653;SDS011;24320;56.980;24.336;2024-02-26T12:05:17;9.98;;;5.88;;
28653;SDS011;24320;56.980;24.336;2024-02-26T12:07:54;11.75;;;5.38;;
28653;SDS011;24320;56.980;24.336;2024-02-26T12:10:36;10.98;;;6.18;;
28653;SDS011;24320;56.980;24.336;2024-02-26T12:30:12;15.05;;;7.32;;
28653;SDS011;24320;56.980;24.336;2024-02-26T12:32:40;11.88;;;5.95;;
28653;SDS011;24320;56.980;24.336;2024-02-26T12:35:08;19.38;;;6.75;;
28653;SDS011;24320;56.980;24.336;2024-02-26T12:37:39;18.83;;;6.50;;
28653;SDS011;24320;56.980;24.336;2024-02-26T12:40:10;13.57;;;5.70;;
28653;SDS011;24320;56.980;24.336;2024-02-26T12:42:39;11.35;;;6.18;;
28653;SDS011;24320;56.980;24.336;2024-02-26T12:45:07;23.98;;;10.18;;
28653;SDS011;24320;56.980;24.336;2024-02-26T12:47:39;23.63;;;10.07;;
28653;SDS011;24320;56.980;24.336;2024-02-26T12:50:07;22.55;;;10.25;;
28653;SDS011;24320;56.980;24.336;2024-02-26T12:52:39;19.33;;;8.55;;
28653;SDS011;24320;56.980;24.336;2024-02-26T12:55:14;15.07;;;7.93;;
28653;SDS011;24320;56.980;24.336;2024-02-26T12:57:44;16.77;;;8.32;;
28653;SDS011;24320;56.980;24.336;2024-02-26T13:00:16;17.00;;;8.45;;
28653;SDS011;24320;56.980;24.336;2024-02-26T13:02:47;18.15;;;7.95;;
28653;SDS011;24320;56.980;24.336;2024-02-26T13:05:17;15.07;;;7.65;;
28653;SDS011;24320;56.980;24.336;2024-02-26T13:07:46;20.38;;;9.60;;
28653;SDS011;24320;56.980;24.336;2024-02-26T13:10:19;24.63;;;9.93;;
28653;SDS011;24320;56.980;24.336;2024-02-26T13:12:49;20.27;;;9.03;;
28653;SDS011;24320;56.980;24.336;2024-02-26T13:15:20;19.75;;;9.20;;
28653;SDS011;24320;56.980;24.336;2024-02-26T13:17:49;19.77;;;8.15;;
28653;SDS011;24320;56.980;24.336;2024-02-26T13:20:26;17.50;;;9.38;;
28653;SDS011;24320;56.980;24.336;2024-02-26T13:25:34;22.60;;;10.50;;
28653;SDS011;24320;56.980;24.336;2024-02-26T13:28:16;28.17;;;10.45;;
28653;SDS011;24320;56.980;24.336;2024-02-26T13:30:53;14.13;;;6.43;;
28653;SDS011;24320;56.980;24.336;2024-02-26T13:33:25;12.02;;;5.97;;
28653;SDS011;24320;56.980;24.336;2024-02-26T13:35:55;20.05;;;12.20;;
28653;SDS011;24320;56.980;24.336;2024-02-26T13:38:24;15.07;;;8.00;;
28653;SDS011;24320;56.980;24.336;2024-02-26T13:40:52;33.78;;;7.22;;
28653;SDS011;24320;56.980;24.336;2024-02-26T13:43:19;14.02;;;5.40;;
28653;SDS011;24320;56.980;24.336;2024-02-26T13:45:47;9.40;;;4.90;;
28653;SDS011;24320;56.980;24.336;2024-02-26T13:48:14;9.50;;;4.80;;
28653;SDS011;24320;56.980;24.336;2024-02-26T13:50:42;25.05;;;5.40;;
28653;SDS011;24320;56.980;24.336;2024-02-26T13:53:11;11.00;;;5.78;;
28653;SDS011;24320;56.980;24.336;2024-02-26T13:55:41;19.77;;;8.45;;
28653;SDS011;24320;56.980;24.336;2024-02-26T13:58:11;14.45;;;7.18;;
28653;SDS011;24320;56.980;24.336;2024-02-26T14:00:42;14.18;;;5.07;;
28653;SDS011;24320;56.980;24.336;2024-02-26T14:03:10;13.45;;;4.50;;
28653;SDS011;24320;56.980;24.336;2024-02-26T14:05:39;6.32;;;4.22;;
28653;SDS011;24320;56.980;24.336;2024-02-26T14:08:09;9.40;;;4.40;;
28653;SDS011;24320;56.980;24.336;2024-02-26T14:10:36;13.38;;;5.68;;
28653;SDS011;24320;56.980;24.336;2024-02-26T14:13:04;8.68;;;4.93;;
28653;SDS011;24320;56.980;24.336;2024-02-26T14:15:31;9.02;;;5.07;;
28653;SDS011;24320;56.980;24.336;2024-02-26T14:18:00;8.57;;;4.68;;
28653;SDS011;24320;56.980;24.336;2024-02-26T14:20:30;11.50;;;5.63;;
28653;SDS011;24320;56.980;24.336;2024-02-26T14:22:59;9.60;;;5.10;;
28653;SDS011;24320;56.980;24.336;2024-02-26T14:25:27;10.10;;;4.90;;
28653;SDS011;24320;56.980;24.336;2024-02-26T14:27:57;7.82;;;5.03;;
28653;SDS011;24320;56.980;24.336;2024-02-26T14:41:40;8.63;;;4.32;;
28653;SDS011;24320;56.980;24.336;2024-02-26T14:44:09;10.48;;;4.88;;
28653;SDS011;24320;56.980;24.336;2024-02-26T14:46:36;12.13;;;5.43;;
28653;SDS011;24320;56.980;24.336;2024-02-26T14:49:04;9.63;;;5.60;;
28653;SDS011;24320;56.980;24.336;2024-02-26T14:51:31;15.98;;;7.60;;
28653;SDS011;24320;56.980;24.336;2024-02-26T14:54:00;33.85;;;6.53;;
28653;SDS011;24320;56.980;24.336;2024-02-26T14:56:31;13.18;;;7.10;;
28653;SDS011;24320;56.980;24.336;2024-02-26T14:58:59;10.45;;;6.53;;
28653;SDS011;24320;56.980;24.336;2024-02-26T15:01:26;12.85;;;6.95;;
28653;SDS011;24320;56.980;24.336;2024-02-26T15:03:53;13.13;;;6.43;;
28653;SDS011;24320;56.980;24.336;2024-02-26T15:06:20;10.70;;;6.30;;
28653;SDS011;24320;56.980;24.336;2024-02-26T15:08:47;10.52;;;6.50;;
28653;SDS011;24320;56.980;24.336;2024-02-26T15:11:15;10.50;;;6.15;;
28653;SDS011;24320;56.980;24.336;2024-02-26T15:13:42;11.27;;;5.70;;
28653;SDS011;24320;56.980;24.336;2024-02-26T15:16:16;14.60;;;6.57;;